Time;durP1;ratioP1;P1;durP2;ratioP2;P2;SDS_P1;SDS_P2;PMS_P1;PMS_P2;Temp;Humidity;BMP_temperature;BMP_pressure;BME280_temperature;BME280_humidity;BME280_pressure;Samples;Min_cycle;Max_cycle;Signal;HPM_P1;HPM_P2
2021/06/21 00:00:56;;;;;;;52.58;10.07;;;;;;;;;;3511806;40;20046;-60
2021/06/21 00:03:22;;;;;;;53.97;9.50;;;;;;;;;;3511949;40;20028;-60
2021/06/21 00:05:49;;;;;;;68.93;11.50;;;;;;;;;;3516218;40;20031;-60
2021/06/21 00:08:15;;;;;;;52.15;9.43;;;;;;;;;;3517131;40;20055;-60
2021/06/21 00:10:41;;;;;;;59.53;10.55;;;;;;;;;;3516860;40;20934;-60
2021/06/21 00:13:08;;;;;;;69.45;11.15;;;;;;;;;;3515405;40;20054;-60
2021/06/21 00:15:34;;;;;;;67.57;10.63;;;;;;;;;;3514710;40;20035;-60
2021/06/21 00:18:00;;;;;;;61.15;10.73;;;;;;;;;;3512834;40;20119;-60
2021/06/21 00:20:27;;;;;;;71.05;11.45;;;;;;;;;;3514971;40;20019;-60
2021/06/21 00:22:54;;;;;;;82.00;12.95;;;;;;;;;;3508310;40;20035;-60
2021/06/21 00:25:21;;;;;;;51.25;9.25;;;;;;;;;;3508869;40;20027;-60
2021/06/21 00:27:48;;;;;;;69.57;11.63;;;;;;;;;;3509757;40;20044;-60
2021/06/21 00:30:16;;;;;;;62.85;11.50;;;;;;;;;;3510187;40;20039;-60
2021/06/21 00:32:43;;;;;;;63.97;11.60;;;;;;;;;;3512487;40;20503;-60
2021/06/21 00:35:10;;;;;;;51.53;10.95;;;;;;;;;;3512516;40;20043;-60
2021/06/21 00:37:36;;;;;;;74.95;13.00;;;;;;;;;;3514990;40;20027;-60
2021/06/21 00:40:07;;;;;;;75.60;13.73;;;;;;;;;;3516357;40;20039;-60
2021/06/21 00:42:34;;;;;;;65.68;14.00;;;;;;;;;;3515764;40;20140;-60
2021/06/21 00:45:00;;;;;;;63.47;13.75;;;;;;;;;;3511554;40;20046;-60
2021/06/21 00:47:26;;;;;;;69.00;14.18;;;;;;;;;;3511449;40;20031;-60
2021/06/21 00:49:52;;;;;;;70.53;15.30;;;;;;;;;;3513312;40;20023;-60
2021/06/21 00:52:21;;;;;;;57.60;13.30;;;;;;;;;;3514165;40;20302;-60
2021/06/21 00:54:47;;;;;;;70.38;15.35;;;;;;;;;;3517244;40;20047;-61
2021/06/21 00:57:13;;;;;;;67.05;14.82;;;;;;;;;;3510252;40;20043;-61
2021/06/21 00:59:39;;;;;;;62.70;15.95;;;;;;;;;;3509316;40;20046;-60
2021/06/21 01:02:06;;;;;;;65.88;14.52;;;;;;;;;;3510592;40;20563;-60
2021/06/21 01:04:32;;;;;;;61.50;15.30;;;;;;;;;;3512100;40;20039;-60
2021/06/21 01:06:59;;;;;;;66.25;16.20;;;;;;;;;;3513392;40;20042;-60
2021/06/21 01:09:25;;;;;;;82.97;17.27;;;;;;;;;;3514825;40;20020;-60
2021/06/21 01:11:56;;;;;;;62.70;15.55;;;;;;;;;;3516453;40;20405;-60
2021/06/21 01:14:29;;;;;;;73.13;17.45;;;;;;;;;;3517689;40;20765;-60
2021/06/21 01:17:01;;;;;;;57.03;14.85;;;;;;;;;;3515992;40;20058;-60
2021/06/21 01:19:30;;;;;;;73.45;15.93;;;;;;;;;;3511116;40;20063;-60
2021/06/21 01:22:15;;;;;;;61.20;14.60;;;;;;;;;;3515809;40;20095;-60
2021/06/21 01:24:59;;;;;;;90.10;17.77;;;;;;;;;;3514153;40;20039;-62
2021/06/21 01:27:32;;;;;;;79.93;16.27;;;;;;;;;;3512918;40;20432;-63
2021/06/21 01:30:09;;;;;;;83.68;16.38;;;;;;;;;;3510819;40;20040;-63
2021/06/21 01:32:46;;;;;;;69.18;15.25;;;;;;;;;;3509958;40;20253;-63
2021/06/21 01:35:30;;;;;;;69.20;14.88;;;;;;;;;;3510583;40;20032;-63
2021/06/21 01:37:59;;;;;;;98.57;16.50;;;;;;;;;;3516300;40;20433;-63
2021/06/21 01:40:27;;;;;;;67.97;14.30;;;;;;;;;;3514570;40;20295;-63
2021/06/21 01:42:56;;;;;;;123.60;20.63;;;;;;;;;;3513720;40;20053;-63
2021/06/21 01:45:23;;;;;;;76.28;15.40;;;;;;;;;;3511317;40;20036;-63
2021/06/21 01:47:51;;;;;;;90.10;14.57;;;24.00;99.90;;;;;;3511105;40;20040;-62
2021/06/21 01:50:22;;;;;;;71.03;15.43;;;;;;;;;;3508725;40;20063;-63
2021/06/21 01:52:51;;;;;;;65.28;13.48;;;;;;;;;;3513525;40;20115;-63
2021/06/21 01:55:19;;;;;;;86.30;14.75;;;;;;;;;;3515823;40;20149;-63
2021/06/21 01:57:46;;;;;;;55.13;12.73;;;;;;;;;;3513439;40;20032;-62
2021/06/21 02:00:13;;;;;;;45.47;12.50;;;;;;;;;;3517219;40;20286;-63
2021/06/21 02:02:40;;;;;;;61.47;12.93;;;;;;;;;;3524159;40;20326;-62
2021/06/21 02:05:08;;;;;;;107.63;17.10;;;;;;;;;;3516971;40;20041;-62
2021/06/21 02:07:34;;;;;;;110.45;16.73;;;;;;;;;;3517927;40;20032;-63
2021/06/21 02:10:01;;;;;;;95.70;15.88;;;;;;;;;;3516727;40;20031;-60
2021/06/21 02:12:28;;;;;;;107.03;17.33;;;;;;;;;;3520556;40;20141;-60
2021/06/21 02:14:56;;;;;;;56.38;12.05;;;;;;;;;;3515680;40;20821;-60
2021/06/21 02:17:25;;;;;;;104.70;16.50;;;;;;;;;;3518392;40;20037;-60
2021/06/21 02:19:52;;;;;;;131.98;21.70;;;;;;;;;;3515084;40;20128;-60
2021/06/21 02:22:22;;;;;;;95.97;16.27;;;;;;;;;;3517429;40;20059;-60
2021/06/21 02:24:48;;;;;;;126.65;19.13;;;;;;;;;;3520097;40;20062;-61
2021/06/21 02:27:15;;;;;;;24.38;9.18;;;;;;;;;;3518810;40;20034;-62
2021/06/21 02:29:42;;;;;;;136.60;18.83;;;;;;;;;;3515734;40;20133;-62
2021/06/21 02:32:08;;;;;;;63.20;13.80;;;;;;;;;;3516868;40;20032;-61
2021/06/21 02:34:34;;;;;;;138.57;20.52;;;;;;;;;;3526675;40;20039;-61
2021/06/21 02:37:00;;;;;;;137.68;17.58;;;;;;;;;;3518203;40;20035;-61
2021/06/21 02:39:26;;;;;;;141.30;17.98;;;;;;;;;;3515350;40;20051;-61
2021/06/21 02:41:52;;;;;;;84.63;13.48;;;;;;;;;;3514457;40;20039;-61
2021/06/21 02:44:18;;;;;;;87.50;13.43;;;;;;;;;;3519712;40;20055;-61
2021/06/21 02:46:45;;;;;;;105.30;14.25;;;;;;;;;;3513584;40;20043;-61
2021/06/21 02:49:11;;;;;;;101.15;14.82;;;;;;;;;;3520013;40;20338;-61
2021/06/21 02:51:40;;;;;;;105.68;15.18;;;;;;;;;;3518049;40;20073;-60
2021/06/21 02:54:16;;;;;;;97.78;15.05;;;;;;;;;;3518641;40;20046;-61
2021/06/21 02:56:50;;;;;;;73.93;12.18;;;;;;;;;;3519400;40;20054;-61
2021/06/21 02:59:19;;;;;;;85.95;12.88;;;;;;;;;;3518921;40;20032;-61
2021/06/21 03:01:47;;;;;;;86.68;13.65;;;;;;;;;;3521377;40;20039;-61
2021/06/21 03:04:14;;;;;;;67.63;11.90;;;;;;;;;;3513589;40;20418;-60
2021/06/21 03:06:41;;;;;;;90.70;14.43;;;;;;;;;;3519623;40;20323;-61
2021/06/21 03:09:08;;;;;;;90.50;13.65;;;;;;;;;;3519902;40;20035;-61
2021/06/21 03:11:34;;;;;;;112.90;15.88;;;;;;;;;;3515594;40;20047;-60
2021/06/21 03:14:01;;;;;;;86.82;13.15;;;;;;;;;;3520438;40;20032;-61
2021/06/21 03:16:27;;;;;;;131.00;17.98;;;;;;;;;;3520787;40;20034;-61
2021/06/21 03:18:55;;;;;;;80.82;12.20;;;20.40;99.90;;;;;;3519083;40;20092;-61
2021/06/21 03:21:21;;;;;;;134.77;17.75;;;;;;;;;;3520901;40;20043;-61
2021/06/21 03:23:52;;;;;;;98.25;13.95;;;;;;;;;;3524260;40;20986;-61
2021/06/21 03:26:23;;;;;;;144.15;17.95;;;;;;;;;;3516725;40;20035;-61
2021/06/21 03:28:49;;;;;;;115.18;15.30;;;;;;;;;;3522133;40;20070;-61
2021/06/21 03:31:15;;;;;;;123.85;16.00;;;;;;;;;;3516488;40;20023;-61
2021/06/21 03:33:42;;;;;;;97.43;14.52;;;;;;;;;;3522820;40;20035;-61
2021/06/21 03:36:08;;;;;;;95.10;13.55;;;;;;;;;;3516953;40;20040;-61
2021/06/21 03:38:34;;;;;;;96.95;13.45;;;;;;;;;;3521187;40;20804;-61
2021/06/21 03:41:01;;;;;;;82.82;12.27;;;;;;;;;;3521754;40;20622;-61
2021/06/21 03:43:28;;;;;;;153.75;18.58;;;;;;;;;;3516850;40;20028;-61
2021/06/21 03:45:56;;;;;;;105.57;14.82;;;;;;;;;;3519797;40;20031;-61
2021/06/21 03:48:23;;;;;;;127.70;16.50;;;;;;;;;;3518998;40;20109;-61
2021/06/21 03:50:49;;;;;;;97.07;13.73;;;;;;;;;;3518156;40;20070;-61
2021/06/21 03:53:16;;;;;;;81.28;11.38;;;;;;;;;;3519541;40;20101;-61
2021/06/21 03:55:42;;;;;;;114.22;15.50;;;;;;;;;;3520349;40;20038;-61
2021/06/21 03:58:08;;;;;;;85.28;12.48;;;;;;;;;;3520798;40;20335;-61
2021/06/21 04:00:35;;;;;;;123.38;16.02;;;;;;;;;;3514679;40;20060;-61
2021/06/21 04:03:02;;;;;;;81.82;12.35;;;;;;;;;;3510594;40;20036;-61
2021/06/21 04:05:28;;;;;;;103.65;14.25;;;;;;;;;;3518843;40;20050;-61
2021/06/21 04:07:55;;;;;;;101.80;14.55;;;;;;;;;;3523867;40;20043;-62
2021/06/21 04:10:25;;;;;;;93.70;13.68;;;;;;;;;;3519755;40;20044;-61
2021/06/21 04:12:52;;;;;;;89.78;12.32;;;;;;;;;;3529060;40;20105;-61
2021/06/21 04:15:19;;;;;;;87.80;12.40;;;;;;;;;;3513597;40;20035;-61
2021/06/21 04:17:46;;;;;;;116.53;15.73;;;;;;;;;;3520483;40;20818;-61
2021/06/21 04:20:17;;;;;;;89.07;12.85;;;;;;;;;;3520740;40;20038;-61
2021/06/21 04:22:43;;;;;;;74.57;11.23;;;;;;;;;;3520853;40;20192;-61
2021/06/21 04:25:11;;;;;;;92.28;12.93;;;;;;;;;;3515586;40;20073;-61
2021/06/21 04:27:38;;;;;;;92.32;13.10;;;;;;;;;;3517837;40;20705;-61
2021/06/21 04:30:11;;;;;;;104.45;14.05;;;;;;;;;;3517185;40;20132;-65
2021/06/21 04:32:37;;;;;;;76.47;11.57;;;;;;;;;;3517555;40;20039;-65
2021/06/21 04:35:05;;;;;;;115.10;18.35;;;;;;;;;;3516567;40;20032;-65
2021/06/21 04:37:31;;;;;;;84.13;13.85;;;;;;;;;;3520428;40;20042;-65
2021/06/21 04:39:57;;;;;;;90.65;14.02;;;;;;;;;;3519526;40;20141;-65
2021/06/21 04:42:23;;;;;;;90.45;12.93;;;;;;;;;;3516046;40;20123;-65
2021/06/21 04:44:49;;;;;;;87.97;12.85;;;;;;;;;;3519679;40;20043;-65
2021/06/21 04:47:16;;;;;;;90.00;13.52;;;;;;;;;;3523701;40;20623;-65
2021/06/21 04:49:42;;;;;;;118.68;16.08;;;;;;;;;;3518699;40;20625;-64
2021/06/21 04:52:11;;;;;;;99.90;13.57;;;;;;;;;;3516078;40;20030;-65
2021/06/21 04:54:37;;;;;;;101.35;15.02;;;;;;;;;;3520821;40;20097;-65
2021/06/21 04:57:03;;;;;;;92.80;13.25;;;;;;;;;;3517672;40;20746;-60
2021/06/21 04:59:29;;;;;;;92.43;14.10;;;;;;;;;;3511361;40;20039;-61
2021/06/21 05:01:55;;;;;;;90.07;14.35;;;;;;;;;;3513547;40;20024;-61
2021/06/21 05:04:22;;;;;;;88.70;13.80;;;;;;;;;;3517727;40;20079;-61
2021/06/21 05:06:48;;;;;;;70.20;11.23;;;;;;;;;;3514587;40;20046;-61
2021/06/21 05:09:14;;;;;;;76.10;12.10;;;;;;;;;;3513456;40;20035;-60
2021/06/21 05:11:40;;;;;;;64.30;11.25;;;;;;;;;;3522647;40;20597;-60
2021/06/21 05:14:06;;;;;;;70.95;11.95;;;;;;;;;;3522484;40;20042;-60
2021/06/21 05:16:32;;;;;;;74.28;11.98;;;;;;;;;;3519286;40;20112;-63
2021/06/21 05:18:58;;;;;;;65.38;12.07;;;;;;;;;;3522395;40;20033;-63
2021/06/21 05:21:25;;;;;;;78.82;13.30;;;;;;;;;;3519948;40;20035;-61
2021/06/21 05:23:51;;;;;;;78.43;13.32;;;;;;;;;;3514736;40;20032;-60
2021/06/21 05:26:17;;;;;;;126.15;18.42;;;;;;;;;;3514574;40;20034;-60
2021/06/21 05:28:43;;;;;;;79.15;12.57;;;;;;;;;;3519839;40;20710;-61
2021/06/21 05:31:09;;;;;;;83.80;12.82;;;;;;;;;;3509409;40;20035;-61
2021/06/21 05:33:35;;;;;;;85.28;13.50;;;;;;;;;;3523271;40;20131;-63
2021/06/21 05:36:01;;;;;;;87.82;15.20;;;;;;;;;;3522657;40;20109;-63
2021/06/21 05:38:27;;;;;;;90.68;13.98;;;;;;;;;;3518582;40;20031;-63
2021/06/21 05:40:53;;;;;;;96.40;13.68;;;;;;;;;;3521997;40;20117;-64
2021/06/21 05:43:19;;;;;;;88.40;13.27;;;;;;;;;;3520112;40;20020;-63
2021/06/21 05:45:45;;;;;;;87.63;12.70;;;;;;;;;;3522323;40;20042;-63
2021/06/21 05:48:11;;;;;;;79.13;11.85;;;;;;;;;;3525851;40;20051;-64
2021/06/21 05:50:38;;;;;;;82.35;13.32;;;;;;;;;;3518777;40;20023;-63
2021/06/21 05:53:04;;;;;;;73.50;11.32;;;;;;;;;;3518505;40;20035;-64
2021/06/21 05:55:31;;;;;;;73.63;11.63;;;;;;;;;;3518069;40;20047;-64
2021/06/21 05:57:57;;;;;;;89.65;13.30;;;;;;;;;;3519556;40;20042;-63
2021/06/21 06:00:23;;;;;;;83.72;12.93;;;;;;;;;;3522233;40;20051;-64
2021/06/21 06:02:50;;;;;;;95.25;13.55;;;;;;;;;;3518862;40;20023;-65
2021/06/21 06:05:16;;;;;;;81.97;12.02;;;;;;;;;;3513703;40;20038;-63
2021/06/21 06:07:43;;;;;;;95.15;13.70;;;;;;;;;;3514753;40;20039;-63
2021/06/21 06:10:09;;;;;;;88.47;12.75;;;;;;;;;;3515876;40;20117;-64
2021/06/21 06:12:35;;;;;;;81.50;12.00;;;;;;;;;;3524119;40;20224;-63
2021/06/21 06:15:02;;;;;;;69.40;10.95;;;;;;;;;;3520278;40;20059;-63
2021/06/21 06:17:28;;;;;;;93.68;12.52;;;;;;;;;;3516964;40;20040;-63
2021/06/21 06:19:54;;;;;;;165.95;38.55;;;;;;;;;;3514556;40;20027;-63
2021/06/21 06:22:20;;;;;;;111.57;24.02;;;;;;;;;;3521566;40;20081;-63
2021/06/21 06:24:47;;;;;;;96.72;13.77;;;;;;;;;;3516355;40;20042;-64
2021/06/21 06:27:13;;;;;;;88.97;12.70;;;;;;;;;;3521096;40;20039;-61
2021/06/21 06:29:39;;;;;;;121.40;19.33;;;;;;;;;;3518895;40;20039;-61
2021/06/21 06:32:05;;;;;;;102.57;14.02;;;;;;;;;;3517283;40;20028;-61
2021/06/21 06:34:32;;;;;;;86.18;12.40;;;;;;;;;;3521774;40;20064;-61
2021/06/21 06:36:58;;;;;;;90.43;12.98;;;;;;;;;;3519524;40;20068;-61
2021/06/21 06:39:24;;;;;;;108.47;14.70;;;;;;;;;;3513197;40;20799;-61
2021/06/21 06:41:50;;;;;;;83.72;12.65;;;;;;;;;;3517196;40;20128;-61
2021/06/21 06:44:17;;;;;;;95.68;13.27;;;;;;;;;;3520010;40;20419;-61
2021/06/21 06:46:43;;;;;;;85.38;12.35;;;;;;;;;;3520017;40;20038;-61
2021/06/21 06:49:09;;;;;;;88.03;12.93;;;;;;;;;;3521121;40;20023;-61
2021/06/21 06:51:42;;;;;;;112.63;14.50;;;;;;;;;;3515720;40;20043;-61
2021/06/21 06:54:20;;;;;;;93.45;13.15;;;;;;;;;;3525888;40;20491;-61
2021/06/21 06:57:00;;;;;;;101.65;14.23;;;;;;;;;;3510166;40;20105;-61
2021/06/21 06:59:27;;;;;;;118.70;15.82;;;;;;;;;;3518761;40;20127;-61
2021/06/21 07:01:53;;;;;;;113.25;15.23;;;;;;;;;;3518990;40;20412;-61
2021/06/21 07:04:19;;;;;;;129.20;17.73;;;;;;;;;;3516901;40;20757;-61
2021/06/21 07:06:45;;;;;;;96.43;14.25;;;;;;;;;;3515785;40;20028;-61
2021/06/21 07:09:11;;;;;;;84.25;12.55;;;;;;;;;;3521394;40;20031;-61
2021/06/21 07:11:38;;;;;;;98.35;14.35;;;;;;;;;;3518303;40;20039;-61
2021/06/21 07:14:04;;;;;;;98.65;14.18;;;;;;;;;;3519890;40;20912;-61
2021/06/21 07:16:31;;;;;;;107.30;15.40;;;;;;;;;;3518497;40;20028;-61
2021/06/21 07:18:57;;;;;;;158.52;21.55;;;;;;;;;;3533364;40;20044;-61
2021/06/21 07:21:23;;;;;;;114.05;16.00;;;;;;;;;;3531938;40;20502;-61
2021/06/21 07:23:49;;;;;;;139.55;18.48;;;;;;;;;;3520360;40;20035;-61
2021/06/21 07:26:15;;;;;;;115.43;16.23;;;;;;;;;;3520489;40;20455;-61
2021/06/21 07:28:41;;;;;;;108.20;15.48;;;;;;;;;;3520773;40;20054;-61
2021/06/21 07:31:08;;;;;;;103.28;15.20;;;;;;;;;;3518838;40;20049;-61
2021/06/21 07:33:34;;;;;;;84.30;13.98;;;;;;;;;;3517691;40;20137;-61
2021/06/21 07:36:00;;;;;;;109.32;15.82;;;;;;;;;;3518423;40;20028;-61
2021/06/21 07:38:26;;;;;;;110.85;15.85;;;;;;;;;;3518730;40;20042;-61
2021/06/21 07:40:53;;;;;;;105.05;15.95;;;;;;;;;;3514560;40;20031;-62
2021/06/21 07:43:19;;;;;;;112.85;16.70;;;;;;;;;;3521245;40;20853;-62
2021/06/21 07:45:46;;;;;;;96.97;14.43;;;;;;;;;;3521356;40;20027;-60
2021/06/21 07:48:12;;;;;;;133.02;17.35;;;;;;;;;;3521149;40;20455;-61
2021/06/21 07:50:38;;;;;;;109.65;15.55;;;;;;;;;;3514053;40;20124;-62
2021/06/21 07:53:06;;;;;;;107.18;16.17;;;;;;;;;;3518252;40;20043;-61
2021/06/21 07:55:33;;;;;;;113.85;15.93;;;;;;;;;;3514735;40;20043;-61
2021/06/21 07:58:01;;;;;;;108.93;16.38;;;;;;;;;;3516851;40;20572;-62
2021/06/21 08:00:28;;;;;;;132.25;18.85;;;;;;;;;;3513485;40;20032;-62
2021/06/21 08:02:55;;;;;;;126.20;18.10;;;;;;;;;;3515612;40;20357;-61
2021/06/21 08:05:22;;;;;;;119.88;16.55;;;;;;;;;;3521521;40;20038;-61
2021/06/21 08:07:48;;;;;;;141.20;18.55;;;;;;;;;;3516125;40;20044;-62
2021/06/21 08:10:15;;;;;;;121.88;16.88;;;;;;;;;;3516703;40;20295;-62
2021/06/21 08:12:42;;;;;;;109.03;15.50;;;;;;;;;;3516961;40;20047;-60
2021/06/21 08:15:09;;;;;;;146.02;20.63;;;;;;;;;;3516897;40;20644;-61
2021/06/21 08:17:35;;;;;;;118.05;15.50;;;;;;;;;;3516750;40;20126;-61
2021/06/21 08:20:01;;;;;;;57.72;11.48;;;;;;;;;;3517357;40;20489;-61
2021/06/21 08:22:27;;;;;;;148.77;19.27;;;;;;;;;;3515069;40;20027;-61
2021/06/21 08:24:53;;;;;;;44.88;11.43;;;;;;;;;;3518242;40;20125;-62
2021/06/21 08:27:19;;;;;;;35.13;8.75;;;;;;;;;;3516381;40;21050;-61
2021/06/21 08:29:45;;;;;;;41.20;10.65;;;;;;;;;;3519179;40;20027;-61
2021/06/21 08:32:12;;;;;;;49.90;10.88;;;;;;;;;;3517273;40;20050;-61
2021/06/21 08:34:41;;;;;;;50.28;10.02;;;;;;;;;;3516941;40;20147;-61
2021/06/21 08:37:08;;;;;;;24.67;7.72;;;;;;;;;;3513630;40;20028;-61
2021/06/21 08:39:36;;;;;;;101.20;52.75;;;;;;;;;;3514375;40;20023;-61
2021/06/21 08:42:02;;;;;;;12.32;6.00;;;;;;;;;;3518042;40;20043;-61
2021/06/21 08:44:29;;;;;;;30.98;9.02;;;;;;;;;;3516595;40;20121;-61
2021/06/21 08:46:56;;;;;;;20.95;7.28;;;;;;;;;;3514674;40;20048;-61
2021/06/21 08:49:22;;;;;;;18.55;7.45;;;;;;;;;;3518022;40;20128;-62
2021/06/21 08:51:52;;;;;;;16.13;7.35;;;;;;;;;;3515719;40;20079;-61
2021/06/21 08:54:18;;;;;;;14.73;6.10;;;;;;;;;;3517670;40;20034;-62
2021/06/21 08:56:44;;;;;;;19.45;6.72;;;;;;;;;;3516381;40;20521;-61
2021/06/21 08:59:11;;;;;;;15.23;5.70;;;;;;;;;;3515988;40;20027;-62
2021/06/21 09:01:40;;;;;;;16.35;6.65;;;;;;;;;;3516569;40;20038;-61
2021/06/21 09:04:09;;;;;;;10.27;5.90;;;;;;;;;;3517823;40;20057;-62
2021/06/21 09:06:37;;;;;;;40.97;13.50;;;;;;;;;;3511429;40;20024;-62
2021/06/21 09:09:03;;;;;;;205.10;160.45;;;;;;;;;;3514092;40;20443;-62
2021/06/21 09:11:45;;;;;;;55.45;9.85;;;;;;;;;;3517948;40;20037;-62
2021/06/21 09:14:37;;;;;;;59.95;10.18;;;;;;;;;;3516250;40;20035;-62
2021/06/21 09:17:08;;;;;;;82.40;11.35;;;;;;;;;;3517976;40;20043;-61
2021/06/21 09:19:44;;;;;;;96.85;12.68;;;;;;;;;;3518784;40;20050;-62
2021/06/21 09:22:30;;;;;;;79.82;12.05;;;;;;;;;;3512773;40;20050;-60
2021/06/21 09:24:58;;;;;;;73.00;11.68;;;;;;;;;;3516430;40;20036;-64
2021/06/21 09:27:24;;;;;;;48.88;9.30;;;;;;;;;;3524197;40;20038;-62
2021/06/21 09:29:52;;;;;;;54.20;10.32;;;;;;;;;;3516583;40;20121;-62
2021/06/21 09:32:19;;;;;;;60.25;10.07;;;;;;;;;;3514792;40;20061;-63
2021/06/21 09:34:45;;;;;;;26.05;7.43;;;;;;;;;;3519767;40;20031;-64
2021/06/21 09:37:12;;;;;;;82.97;19.45;;;;;;;;;;3516789;40;20032;-61
2021/06/21 09:39:42;;;;;;;212.15;101.95;;;;;;;;;;3516858;40;20042;-61
2021/06/21 09:42:10;;;;;;;202.13;51.63;;;;;;;;;;3517543;40;20047;-61
2021/06/21 09:44:39;;;;;;;57.53;12.20;;;;;;;;;;3513376;40;20043;-61
2021/06/21 09:47:12;;;;;;;13.93;5.80;;;;;;;;;;3514969;40;20032;-61
2021/06/21 09:49:38;;;;;;;22.17;7.90;;;;;;;;;;3514573;40;20106;-61
2021/06/21 09:52:04;;;;;;;25.05;8.15;;;;;;;;;;3510701;40;20137;-61
2021/06/21 09:54:34;;;;;;;22.92;7.60;;;;;;;;;;3516525;40;20796;-61
2021/06/21 09:57:12;;;;;;;15.10;6.50;;;;;;;;;;3513899;40;20040;-61
2021/06/21 09:59:46;;;;;;;12.25;4.93;;;;;;;;;;3513642;40;20047;-61
2021/06/21 10:02:18;;;;;;;10.03;4.60;;;;;;;;;;3517103;40;20314;-61
2021/06/21 10:04:45;;;;;;;14.57;7.05;;;;;;;;;;3519616;40;20802;-61
2021/06/21 10:07:29;;;;;;;16.63;6.00;;;;;;;;;;3516670;40;20027;-61
2021/06/21 10:09:58;;;;;;;12.23;4.40;;;;;;;;;;3523443;40;20043;-62
2021/06/21 10:12:24;;;;;;;9.00;3.45;;;;;;;;;;3520128;40;20053;-61
2021/06/21 10:14:50;;;;;;;11.07;4.30;;;;;;;;;;3542570;40;20042;-61
2021/06/21 10:17:16;;;;;;;12.77;5.72;;;;;;;;;;3538358;40;20051;-61
2021/06/21 10:19:43;;;;;;;19.60;5.97;;;;;;;;;;3546823;40;20041;-61
2021/06/21 10:22:09;;;;;;;12.00;5.43;;;;;;;;;;3539596;40;20033;-61
2021/06/21 10:24:35;;;;;;;18.08;7.63;;;;;;;;;;3550456;40;20025;-61
2021/06/21 10:27:02;;;;;;;69.20;15.80;;;;;;;;;;3546481;40;20064;-60
2021/06/21 10:29:30;;;;;;;105.90;13.23;;;;;;;;;;3545602;40;20041;-61
2021/06/21 10:31:57;;;;;;;100.35;14.85;;;;;;;;;;3521640;40;20039;-61
2021/06/21 10:34:24;;;;;;;77.93;10.90;;;;;;;;;;3516774;40;20028;-61
2021/06/21 10:36:52;;;;;;;102.13;12.90;;;;;;;;;;3515896;40;20024;-61
2021/06/21 10:39:20;;;;;;;105.70;13.38;;;;;;;;;;3518122;40;20039;-61
2021/06/21 10:42:13;;;;;;;121.82;13.90;;;;;;;;;;3526567;40;20035;-60
2021/06/21 10:44:42;;;;;;;101.53;12.65;;;;;;;;;;3547869;40;20047;-61
2021/06/21 10:47:32;;;;;;;90.32;11.65;;;;;;;;;;3540802;40;20486;-61
2021/06/21 10:49:59;;;;;;;54.25;9.60;;;;;;;;;;3529453;40;20408;-61
2021/06/21 10:52:34;;;;;;;62.42;9.57;;;;;;;;;;3529041;40;20531;-61
2021/06/21 10:55:19;;;;;;;84.25;10.90;;;;;;;;;;3536538;40;20040;-61
2021/06/21 10:57:45;;;;;;;10.35;2.90;;;;;;;;;;3548014;40;20046;-61
2021/06/21 11:00:12;;;;;;;108.25;12.80;;;;;;;;;;3539454;40;20335;-61
2021/06/21 11:02:38;;;;;;;118.03;16.58;;;;;;;;;;3534144;40;20032;-63
2021/06/21 11:05:05;;;;;;;170.35;56.13;;;;;;;;;;3529769;40;20043;-62
2021/06/21 11:07:32;;;;;;;109.90;11.20;;;;;;;;;;3542698;40;20037;-61
2021/06/21 11:10:01;;;;;;;95.18;11.05;;;;;;;;;;3541909;40;20121;-60
2021/06/21 11:12:27;;;;;;;68.95;9.70;;;;;;;;;;3539347;40;20436;-60
2021/06/21 11:15:09;;;;;;;25.25;5.65;;;;;;;;;;3552814;40;20021;-61
2021/06/21 11:17:51;;;;;;;6.97;2.63;;;;;;;;;;3553206;40;20055;-61
2021/06/21 11:20:52;;;;;;;23.60;6.78;;;;;;;;;;3540460;40;20029;-61
2021/06/21 11:23:37;;;;;;;19.33;5.70;;;;;;;;;;3546029;40;20045;-61
2021/06/21 11:26:03;;;;;;;12.50;4.65;;;;;;;;;;3516900;40;20089;-61
2021/06/21 11:28:39;;;;;;;14.68;4.10;;;;;;;;;;3514601;40;20040;-61
2021/06/21 11:31:35;;;;;;;20.15;5.45;;;;;;;;;;3514085;40;20078;-61
2021/06/21 11:34:06;;;;;;;18.23;5.80;;;;;;;;;;3524110;40;20317;-61
2021/06/21 11:36:38;;;;;;;11.52;2.90;;;;;;;;;;3516303;40;20050;-61
2021/06/21 11:39:16;;;;;;;11.57;3.17;;;;;;;;;;3515124;40;20121;-61
2021/06/21 11:41:55;;;;;;;10.25;3.08;;;;;;;;;;3514750;40;20046;-61
2021/06/21 11:44:39;;;;;;;20.85;5.93;;;;;;;;;;3515411;40;20047;-61
2021/06/21 11:47:24;;;;;;;25.25;8.63;;;;;;;;;;3516499;40;20031;-61
2021/06/21 11:49:54;;;;;;;20.90;6.38;;;;;;;;;;3517670;40;20042;-61
2021/06/21 11:52:21;;;;;;;20.15;4.60;;;;;;;;;;3515966;40;20104;-61
2021/06/21 11:54:49;;;;;;;60.90;9.77;;;;;;;;;;3514747;40;20387;-60
2021/06/21 11:57:16;;;;;;;23.63;6.88;;;;;;;;;;3513025;40;20031;-61
2021/06/21 11:59:43;;;;;;;30.83;6.32;;;;;;;;;;3520934;40;20043;-61
2021/06/21 12:02:13;;;;;;;16.80;2.97;;;;;;;;;;3515933;40;20027;-60
2021/06/21 12:04:40;;;;;;;12.63;2.35;;;;;;;;;;3512349;40;20105;-61
2021/06/21 12:07:07;;;;;;;14.95;3.17;;;;;;;;;;3509014;40;20513;-61
2021/06/21 12:09:40;;;;;;;13.32;3.17;;;;;;;;;;3512945;40;20020;-61
2021/06/21 12:12:06;;;;;;;20.23;3.20;;;;;;;;;;3513773;40;20024;-61
2021/06/21 12:14:33;;;;;;;15.15;4.03;;;;;;;;;;3514426;40;20039;-61
2021/06/21 12:17:04;;;;;;;7.28;2.13;;;;;;;;;;3519214;40;20721;-61
2021/06/21 12:19:30;;;;;;;8.75;2.50;;;;;;;;;;3516956;40;20043;-61
2021/06/21 12:21:57;;;;;;;10.25;2.30;;;;;;;;;;3525302;40;20046;-61
2021/06/21 12:24:25;;;;;;;10.43;2.25;;;;;;;;;;3511533;40;20099;-61
2021/06/21 12:26:52;;;;;;;11.10;3.08;;;;;;;;;;3510175;40;20128;-61
2021/06/21 12:29:38;;;;;;;10.75;3.50;;;;;;;;;;3519410;40;20040;-61
2021/06/21 12:32:05;;;;;;;12.23;2.88;;;;;;;;;;3512361;40;20023;-61
2021/06/21 12:34:41;;;;;;;15.10;2.80;;;;;;;;;;3515139;40;20142;-61
2021/06/21 12:37:11;;;;;;;8.80;2.42;;;;;;;;;;3515861;40;20795;-61
2021/06/21 12:39:38;;;;;;;13.35;3.05;;;;;;;;;;3516127;40;20662;-61
2021/06/21 12:42:10;;;;;;;25.85;5.38;;;;;;;;;;3517842;40;20039;-61
2021/06/21 12:44:37;;;;;;;102.55;12.05;;;;;;;;;;3524344;40;20024;-61
2021/06/21 12:47:13;;;;;;;89.88;10.63;;;;;;;;;;3523613;40;20094;-61
2021/06/21 12:49:39;;;;;;;132.82;14.25;;;;;;;;;;3539393;40;20073;-61
2021/06/21 12:52:06;;;;;;;111.32;12.55;;;;;;;;;;3539764;40;20043;-61
2021/06/21 12:54:34;;;;;;;99.30;11.13;;;;;;;;;;3548599;40;20809;-61
2021/06/21 12:57:00;;;;;;;114.40;12.05;;;;;;;;;;3536380;40;20080;-61
2021/06/21 12:59:29;;;;;;;49.50;8.10;;;;;;;;;;3538076;40;20043;-61
2021/06/21 13:01:56;;;;;;;105.30;11.93;;;;;;;;;;3537854;40;20025;-61
2021/06/21 13:04:23;;;;;;;102.90;11.20;;;;;;;;;;3531167;40;20035;-61
2021/06/21 13:06:55;;;;;;;58.97;8.13;;;;;;;;;;3511402;40;20075;-61
2021/06/21 13:09:21;;;;;;;19.10;2.20;;;;;;;;;;3515687;40;20066;-61
2021/06/21 13:11:47;;;;;;;8.35;2.25;;;;;;;;;;3514352;40;20451;-61
2021/06/21 13:14:14;;;;;;;20.50;4.68;;;;;;;;;;3516072;40;20024;-62
2021/06/21 13:16:40;;;;;;;9.77;3.13;;;;;;;;;;3513563;40;20039;-62
2021/06/21 13:19:16;;;;;;;27.00;5.47;;;;;;;;;;3513887;40;20035;-67
2021/06/21 13:21:46;;;;;;;21.80;5.10;;;;;;;;;;3535623;40;20204;-66
2021/06/21 13:24:14;;;;;;;17.30;5.40;;;;;;;;;;3543214;40;20039;-66
2021/06/21 13:26:42;;;;;;;22.27;5.00;;;;;;;;;;3541599;40;20037;-67
2021/06/21 13:29:17;;;;;;;26.38;6.90;;;;;;;;;;3510476;40;20043;-67
2021/06/21 13:31:43;;;;;;;13.30;3.83;;;;;;;;;;3518496;40;20070;-66
2021/06/21 13:34:10;;;;;;;12.70;4.10;;;;;;;;;;3526820;40;20096;-66
2021/06/21 13:36:54;;;;;;;14.75;3.22;;;;;;;;;;3532997;40;20028;-67
2021/06/21 13:39:20;;;;;;;9.23;2.10;;;;;;;;;;3517698;40;20508;-66
2021/06/21 13:41:55;;;;;;;12.90;1.95;;;;;;;;;;3507844;40;20046;-67
2021/06/21 13:44:21;;;;;;;5.13;1.67;;;;;;;;;;3514137;40;20031;-66
2021/06/21 13:46:48;;;;;;;9.95;2.17;;;;;;;;;;3515856;40;20028;-66
2021/06/21 13:49:14;;;;;;;6.55;1.85;;;;;;;;;;3509978;40;20051;-66
2021/06/21 13:51:52;;;;;;;8.70;1.58;;;;;;;;;;3510873;40;20054;-66
2021/06/21 13:54:18;;;;;;;10.75;1.88;;;;;;;;;;3515388;40;20682;-67
2021/06/21 13:56:45;;;;;;;7.72;1.67;;;;;;;;;;3515594;40;20615;-67
2021/06/21 13:59:12;;;;;;;16.60;3.45;;;;;;;;;;3514254;40;20030;-66
2021/06/21 14:01:38;;;;;;;14.82;3.63;;;;;;;;;;3523564;40;20035;-66
2021/06/21 14:04:05;;;;;;;28.10;5.45;;;;;;;;;;3513882;40;20031;-67
2021/06/21 14:06:32;;;;;;;9.48;3.20;;;;;;;;;;3513256;40;20032;-67
2021/06/21 14:09:00;;;;;;;11.73;1.60;;;;;;;;;;3512968;40;20047;-66
2021/06/21 14:11:27;;;;;;;22.17;4.95;;;;;;;;;;3511843;40;20367;-66
2021/06/21 14:13:53;;;;;;;7.40;1.85;;;40.70;45.40;;;;;;3515724;40;20036;-61
2021/06/21 14:16:22;;;;;;;9.48;1.95;;;;;;;;;;3509044;40;20045;-62
2021/06/21 14:18:48;;;;;;;10.65;1.75;;;;;;;;;;3515488;40;20035;-62
2021/06/21 14:21:14;;;;;;;10.75;1.90;;;;;;;;;;3513781;40;20091;-61
2021/06/21 14:23:42;;;;;;;6.43;1.83;;;;;;;;;;3514315;40;20038;-62